createdAt,value
2022-12-03T00:00:41.810Z,98347.73
2022-12-03T00:02:55.754Z,98345.66
2022-12-03T00:04:58.686Z,98343.79
2022-12-03T00:07:01.542Z,98347.05
2022-12-03T00:09:05.176Z,98348.95
2022-12-03T00:11:07.978Z,98346.60
2022-12-03T00:13:10.828Z,98344.07
2022-12-03T00:15:13.669Z,98343.55
2022-12-03T00:17:16.502Z,98344.27
2022-12-03T00:19:19.322Z,98342.33
2022-12-03T00:21:24.465Z,98342.73
2022-12-03T00:23:27.834Z,98339.21
2022-12-03T00:25:30.714Z,98342.34
2022-12-03T00:27:33.552Z,98337.23
2022-12-03T00:29:36.360Z,98336.25
2022-12-03T00:31:43.471Z,98334.13
2022-12-03T00:33:46.295Z,98336.53
2022-12-03T00:35:49.307Z,98334.22
2022-12-03T00:37:52.165Z,98330.76
2022-12-03T00:39:56.921Z,98333.41
2022-12-03T00:41:59.800Z,98340.31
2022-12-03T00:44:05.415Z,98342.77
2022-12-03T00:46:08.236Z,98342.77
2022-12-03T00:48:11.038Z,98344.75
2022-12-03T00:50:16.856Z,98343.59
2022-12-03T00:52:20.060Z,98342.11
2022-12-03T00:54:26.962Z,98341.64
2022-12-03T00:56:32.970Z,98342.04
2022-12-03T00:58:36.116Z,98342.05
2022-12-03T01:00:38.928Z,98341.86
2022-12-03T01:02:41.883Z,98339.27
2022-12-03T01:04:44.824Z,98337.70
2022-12-03T01:06:47.695Z,98333.89
2022-12-03T01:08:50.536Z,98334.11
2022-12-03T01:10:53.293Z,98331.79
2022-12-03T01:12:56.055Z,98334.34
2022-12-03T01:14:58.837Z,98333.77
2022-12-03T01:17:01.581Z,98340.23
2022-12-03T01:19:06.044Z,98338.08
2022-12-03T01:21:09.007Z,98337.48
2022-12-03T01:23:12.166Z,98335.10
2022-12-03T01:25:15.195Z,98332.25
2022-12-03T01:27:18.013Z,98331.59
2022-12-03T01:29:20.826Z,98331.85
2022-12-03T01:31:42.703Z,98328.46
2022-12-03T01:33:45.589Z,98328.50
2022-12-03T01:35:48.415Z,98327.23
2022-12-03T01:37:51.173Z,98330.83
2022-12-03T01:39:54.194Z,98334.86
2022-12-03T01:41:58.901Z,98335.64
2022-12-03T01:44:04.036Z,98341.20
2022-12-03T01:46:07.128Z,98344.30
2022-12-03T01:48:16.818Z,98343.52
2022-12-03T01:50:32.055Z,98336.09
2022-12-03T01:52:37.415Z,98341.35
2022-12-03T01:54:50.802Z,98338.16
2022-12-03T01:56:55.197Z,98336.91
2022-12-03T01:58:58.082Z,98333.90
2022-12-03T02:01:10.539Z,98332.38
2022-12-03T02:03:24.063Z,98329.80
2022-12-03T02:05:30.753Z,98325.83
2022-12-03T02:07:34.311Z,98321.06
2022-12-03T02:09:37.131Z,98323.54
2022-12-03T02:11:44.624Z,98319.86
2022-12-03T02:13:51.695Z,98316.71
2022-12-03T02:15:54.729Z,98314.63
2022-12-03T02:17:57.896Z,98315.98
2022-12-03T02:20:01.859Z,98315.38
2022-12-03T02:22:10.229Z,98320.45
2022-12-03T02:24:38.907Z,98317.30
2022-12-03T02:26:41.939Z,98315.93
2022-12-03T02:28:44.740Z,98317.34
2022-12-03T02:30:47.652Z,98315.66
2022-12-03T02:32:52.111Z,98313.84
2022-12-03T02:34:55.073Z,98318.67
2022-12-03T02:36:58.222Z,98324.17
2022-12-03T02:39:01.997Z,98326.64
2022-12-03T02:41:09.512Z,98333.92
2022-12-03T02:43:16.854Z,98333.16
2022-12-03T02:45:30.987Z,98333.98
2022-12-03T02:47:42.639Z,98339.11
2022-12-03T02:49:45.599Z,98339.84
2022-12-03T02:51:48.456Z,98340.15
2022-12-03T02:53:53.525Z,98338.02
2022-12-03T02:55:58.808Z,98339.17
2022-12-03T02:58:03.273Z,98336.20
2022-12-03T03:00:09.148Z,98338.55
2022-12-03T03:02:14.646Z,98339.42
2022-12-03T03:04:17.667Z,98336.98
2022-12-03T03:06:21.405Z,98336.37
2022-12-03T03:08:25.608Z,98337.86
2022-12-03T03:10:30.715Z,98339.77
2022-12-03T03:12:39.062Z,98339.29
2022-12-03T03:14:42.528Z,98340.85
2022-12-03T03:16:45.462Z,98337.16
2022-12-03T03:18:49.027Z,98340.96
2022-12-03T03:20:51.791Z,98339.92
2022-12-03T03:22:54.829Z,98341.98
2022-12-03T03:24:57.628Z,98338.36
2022-12-03T03:27:00.486Z,98333.88
2022-12-03T03:29:03.408Z,98338.86
2022-12-03T03:31:08.708Z,98337.48
2022-12-03T03:33:13.437Z,98333.94
2022-12-03T03:35:18.033Z,98334.82
2022-12-03T03:37:21.199Z,98332.00
2022-12-03T03:39:24.311Z,98328.38
2022-12-03T03:41:28.376Z,98326.92
2022-12-03T03:43:34.976Z,98327.54
2022-12-03T03:45:37.861Z,98325.14
2022-12-03T03:47:41.689Z,98325.89
2022-12-03T03:49:44.746Z,98324.45
2022-12-03T03:51:47.920Z,98320.50
2022-12-03T03:53:52.134Z,98318.21
2022-12-03T03:55:55.072Z,98323.05
2022-12-03T03:57:58.472Z,98321.17
2022-12-03T04:00:01.376Z,98326.56
2022-12-03T04:02:04.185Z,98331.08
2022-12-03T04:04:20.806Z,98330.70
2022-12-03T04:06:23.686Z,98327.48
2022-12-03T04:08:26.673Z,98323.26
2022-12-03T04:10:48.322Z,98324.21
2022-12-03T04:12:56.901Z,98327.09
2022-12-03T04:14:59.996Z,98326.46
2022-12-03T04:17:02.984Z,98321.26
2022-12-03T04:19:05.783Z,98321.14
2022-12-03T04:21:28.928Z,98321.19
2022-12-03T04:23:31.776Z,98324.13
2022-12-03T04:25:53.406Z,98325.34
2022-12-03T04:28:14.945Z,98325.98
2022-12-03T04:30:17.794Z,98322.92
2022-12-03T04:32:39.460Z,98320.27
2022-12-03T04:35:01.177Z,98319.11
2022-12-03T04:37:04.712Z,98316.83
2022-12-03T04:39:07.589Z,98319.54
2022-12-03T04:41:10.348Z,98315.71
2022-12-03T04:43:13.212Z,98319.69
2022-12-03T04:45:16.143Z,98314.77
2022-12-03T04:47:20.658Z,98319.73
2022-12-03T04:49:23.838Z,98317.80
2022-12-03T04:51:26.575Z,98322.42
2022-12-03T04:53:29.352Z,98331.31
2022-12-03T04:55:32.113Z,98333.34
2022-12-03T04:57:34.922Z,98330.71
2022-12-03T04:59:38.082Z,98332.07
2022-12-03T05:01:41.161Z,98329.80
2022-12-03T05:03:43.992Z,98336.05
2022-12-03T05:05:46.821Z,98329.94
2022-12-03T05:07:49.825Z,98328.24
2022-12-03T05:09:52.651Z,98332.89
2022-12-03T05:11:55.435Z,98331.27
2022-12-03T05:13:58.294Z,98331.82
2022-12-03T05:16:01.119Z,98338.30
2022-12-03T05:18:04.022Z,98330.56
2022-12-03T05:20:26.164Z,98333.23
2022-12-03T05:22:29.037Z,98333.90
2022-12-03T05:24:31.838Z,98333.98
2022-12-03T05:26:34.686Z,98336.64
2022-12-03T05:28:37.447Z,98332.63
2022-12-03T05:30:40.384Z,98336.80
2022-12-03T05:32:43.408Z,98332.61
2022-12-03T05:34:46.179Z,98327.74
2022-12-03T05:36:48.950Z,98324.61
2022-12-03T05:38:51.799Z,98319.41
2022-12-03T05:40:55.340Z,98317.09
2022-12-03T05:42:58.357Z,98320.77
2022-12-03T05:45:01.157Z,98312.80
2022-12-03T05:47:04.030Z,98316.70
2022-12-03T05:49:06.838Z,98314.95
2022-12-03T05:51:09.656Z,98316.95
2022-12-03T05:53:13.290Z,98310.77
2022-12-03T05:55:16.755Z,98311.98
2022-12-03T05:57:19.551Z,98303.95
2022-12-03T05:59:22.464Z,98307.74
2022-12-03T06:01:25.610Z,98307.06
2022-12-03T06:03:28.501Z,98305.95
2022-12-03T06:05:31.430Z,98312.45
2022-12-03T06:07:34.358Z,98307.94
2022-12-03T06:09:37.268Z,98308.48
2022-12-03T06:11:40.741Z,98308.48
2022-12-03T06:13:43.557Z,98312.52
2022-12-03T06:15:46.345Z,98314.65
2022-12-03T06:17:49.114Z,98319.07
2022-12-03T06:19:52.139Z,98321.46
2022-12-03T06:21:55.672Z,98324.52
2022-12-03T06:23:58.454Z,98325.13
2022-12-03T06:26:01.253Z,98326.84
2022-12-03T06:28:04.184Z,98329.82
2022-12-03T06:30:09.009Z,98329.95
2022-12-03T06:32:11.933Z,98325.81
2022-12-03T06:34:14.764Z,98331.67
2022-12-03T06:36:22.622Z,98331.29
2022-12-03T06:38:25.962Z,98334.94
2022-12-03T06:40:28.765Z,98331.15
2022-12-03T06:42:31.580Z,98335.73
2022-12-03T06:44:34.494Z,98331.23
2022-12-03T06:46:37.516Z,98332.27
2022-12-03T06:48:40.328Z,98339.72
2022-12-03T06:50:43.301Z,98338.36
2022-12-03T06:52:46.152Z,98338.82
2022-12-03T06:54:48.954Z,98341.66
2022-12-03T06:56:51.771Z,98337.53
2022-12-03T06:58:54.678Z,98338.95
2022-12-03T07:00:57.519Z,98340.95
2022-12-03T07:03:00.406Z,98343.75
2022-12-03T07:05:04.131Z,98346.03
2022-12-03T07:07:06.892Z,98350.45
2022-12-03T07:09:09.874Z,98345.66
2022-12-03T07:11:31.317Z,98342.79
2022-12-03T07:13:34.123Z,98335.44
2022-12-03T07:15:37.285Z,98337.34
2022-12-03T07:17:40.138Z,98337.66
2022-12-03T07:19:42.883Z,98335.35
2022-12-03T07:21:45.836Z,98330.16
2022-12-03T07:23:48.596Z,98330.27
2022-12-03T07:25:51.404Z,98334.97
2022-12-03T07:27:54.194Z,98330.21
2022-12-03T07:29:56.987Z,98334.10
2022-12-03T07:31:59.926Z,98325.70
2022-12-03T07:34:02.876Z,98333.71
2022-12-03T07:36:06.030Z,98332.39
2022-12-03T07:38:08.854Z,98330.36
2022-12-03T07:40:12.252Z,98335.67
2022-12-03T07:42:15.043Z,98331.59
2022-12-03T07:44:17.870Z,98331.48
2022-12-03T07:46:20.849Z,98335.02
2022-12-03T07:48:23.708Z,98334.48
2022-12-03T07:50:28.402Z,98333.62
2022-12-03T07:52:31.320Z,98332.31
2022-12-03T07:54:34.159Z,98332.17
2022-12-03T07:56:37.051Z,98337.02
2022-12-03T07:58:39.907Z,98329.77
2022-12-03T08:00:42.806Z,98327.73
2022-12-03T08:02:46.006Z,98326.89
2022-12-03T08:04:49.032Z,98329.67
2022-12-03T08:06:51.874Z,98332.17
2022-12-03T08:08:54.662Z,98330.79
2022-12-03T08:10:57.519Z,98323.77
2022-12-03T08:13:00.524Z,98317.14
2022-12-03T08:15:10.320Z,98315.92
2022-12-03T08:17:14.676Z,98321.30
2022-12-03T08:21:06.894Z,98327.23
2022-12-03T08:24:15.773Z,98323.46
2022-12-03T08:27:19.964Z,98332.25
2022-12-03T08:30:23.521Z,98334.94
2022-12-03T08:33:29.635Z,98337.10
2022-12-03T08:36:33.847Z,98334.24
2022-12-03T08:39:44.624Z,98329.48
2022-12-03T08:42:47.685Z,98334.10
2022-12-03T08:45:53.241Z,98337.11
2022-12-03T08:52:19.844Z,98346.66
2022-12-03T08:55:37.316Z,98351.98
2022-12-03T08:58:48.020Z,98348.74
2022-12-03T09:01:53.567Z,98350.77
2022-12-03T09:04:56.724Z,98349.60
2022-12-03T09:07:59.824Z,98350.50
2022-12-03T09:11:02.617Z,98351.58
2022-12-03T09:14:05.850Z,98346.40
2022-12-03T09:17:08.735Z,98347.80
2022-12-03T09:20:11.931Z,98351.30
2022-12-03T09:23:14.778Z,98344.05
2022-12-03T09:26:17.569Z,98343.14
2022-12-03T09:29:20.381Z,98339.59
2022-12-03T09:32:23.323Z,98338.20
2022-12-03T09:35:27.135Z,98340.54
2022-12-03T09:38:29.942Z,98337.44
2022-12-03T09:41:36.233Z,98338.89
2022-12-03T09:44:39.178Z,98337.48
2022-12-03T09:47:46.254Z,98337.24
2022-12-03T09:50:50.011Z,98342.05
2022-12-03T09:53:52.849Z,98344.05
2022-12-03T09:56:57.475Z,98335.49
2022-12-03T10:00:02.941Z,98332.55
2022-12-03T10:03:07.781Z,98334.07
2022-12-03T10:06:16.528Z,98324.19
2022-12-03T10:09:25.181Z,98314.75
2022-12-03T10:12:27.944Z,98308.15
2022-12-03T10:15:31.799Z,98310.89
2022-12-03T10:18:41.283Z,98313.23
2022-12-03T10:21:46.020Z,98310.11
2022-12-03T10:25:14.921Z,98314.70
2022-12-03T10:28:31.259Z,98311.09
2022-12-03T10:31:37.057Z,98312.37
2022-12-03T10:34:41.620Z,98314.77
2022-12-03T10:37:59.597Z,98317.05
2022-12-03T10:41:21.426Z,98310.25
2022-12-03T10:44:27.629Z,98304.79
2022-12-03T10:47:30.757Z,98303.65
2022-12-03T10:50:34.917Z,98298.58
2022-12-03T10:53:39.890Z,98296.11
2022-12-03T10:56:43.805Z,98291.27
2022-12-03T10:59:46.660Z,98287.05
2022-12-03T11:02:56.471Z,98286.48
2022-12-03T11:09:48.524Z,98284.59
2022-12-03T11:13:29.348Z,98285.63
2022-12-03T11:16:41.473Z,98290.41
2022-12-03T11:19:47.793Z,98293.94
2022-12-03T11:26:38.234Z,98285.17
2022-12-03T11:29:50.262Z,98282.77
2022-12-03T11:36:36.414Z,98277.58
2022-12-03T11:39:50.119Z,98277.48
2022-12-03T11:42:53.170Z,98278.72
2022-12-03T11:45:59.675Z,98282.02
2022-12-03T11:49:25.148Z,98279.24
2022-12-03T11:52:32.013Z,98277.75
2022-12-03T11:55:39.025Z,98279.55
2022-12-03T11:58:47.312Z,98279.38
2022-12-03T12:01:50.125Z,98282.30
2022-12-03T12:04:52.921Z,98278.27
2022-12-03T12:07:57.750Z,98278.56
2022-12-03T12:11:01.063Z,98274.52
2022-12-03T12:14:13.643Z,98270.24
2022-12-03T12:17:36.997Z,98275.10
2022-12-03T12:20:39.928Z,98266.68
2022-12-03T12:23:42.718Z,98262.77
2022-12-03T12:26:52.208Z,98257.16
2022-12-03T12:30:00.047Z,98256.61
2022-12-03T12:33:36.071Z,98255.34
2022-12-03T12:36:39.271Z,98253.23
2022-12-03T12:39:42.211Z,98252.39
2022-12-03T12:42:59.300Z,98242.32
2022-12-03T12:46:45.623Z,98238.13
2022-12-03T12:49:34.130Z,98233.84
2022-12-03T12:52:49.698Z,98232.00
2022-12-03T12:55:57.182Z,98234.94
2022-12-03T12:59:11.509Z,98227.24
2022-12-03T13:03:04.087Z,98224.68
2022-12-03T13:06:15.042Z,98221.02
2022-12-03T13:09:23.778Z,98226.89
2022-12-03T13:12:27.064Z,98223.66
2022-12-03T13:15:42.669Z,98225.58
2022-12-03T13:18:53.438Z,98230.50
2022-12-03T13:22:14.051Z,98232.39
2022-12-03T13:26:00.210Z,98231.57
2022-12-03T13:29:06.835Z,98225.21
2022-12-03T13:32:15.173Z,98223.56
2022-12-03T13:35:27.547Z,98220.84
2022-12-03T13:38:30.462Z,98221.83
2022-12-03T13:41:51.870Z,98221.62
2022-12-03T13:44:54.812Z,98219.23
2022-12-03T13:48:00.293Z,98215.28
2022-12-03T13:51:26.781Z,98212.84
2022-12-03T13:54:39.381Z,98215.55
2022-12-03T13:57:42.160Z,98212.39
2022-12-03T14:00:45.312Z,98210.67
2022-12-03T14:03:48.177Z,98214.30
2022-12-03T14:06:51.020Z,98220.42
2022-12-03T14:09:54.065Z,98217.65
2022-12-03T14:12:57.460Z,98215.16
2022-12-03T14:16:02.503Z,98214.30
2022-12-03T14:19:06.365Z,98213.05
2022-12-03T14:22:10.088Z,98220.27
2022-12-03T14:25:12.887Z,98220.88
2022-12-03T14:28:15.739Z,98223.27
2022-12-03T14:31:18.563Z,98231.14
2022-12-03T14:34:21.474Z,98229.10
2022-12-03T14:37:24.467Z,98224.92
2022-12-03T14:40:27.657Z,98229.46
2022-12-03T14:43:30.447Z,98235.11
2022-12-03T14:46:33.254Z,98236.21
2022-12-03T14:49:36.478Z,98229.05
2022-12-03T14:52:39.277Z,98232.40
2022-12-03T14:55:44.344Z,98241.44
2022-12-03T14:58:47.361Z,98237.01
2022-12-03T15:01:50.584Z,98240.66
2022-12-03T15:04:53.411Z,98240.41
2022-12-03T15:07:56.378Z,98248.24
2022-12-03T15:11:00.567Z,98251.65
2022-12-03T15:14:03.491Z,98248.56
2022-12-03T15:17:06.386Z,98248.50
2022-12-03T15:20:10.760Z,98243.21
2022-12-03T15:23:14.683Z,98241.30
2022-12-03T15:26:17.721Z,98242.08
2022-12-03T15:29:20.906Z,98235.88
2022-12-03T15:35:46.217Z,98248.48
2022-12-03T15:38:49.053Z,98247.02
2022-12-03T15:41:51.864Z,98246.25
2022-12-03T15:44:54.573Z,98245.31
2022-12-03T15:47:57.398Z,98242.11
2022-12-03T15:51:00.193Z,98235.94
2022-12-03T15:54:03.058Z,98236.80
2022-12-03T15:57:05.799Z,98236.88
2022-12-03T16:00:10.924Z,98230.05
2022-12-03T16:03:13.815Z,98232.52
2022-12-03T16:06:33.579Z,98229.23
2022-12-03T16:09:36.559Z,98234.14
2022-12-03T16:12:39.637Z,98228.45
2022-12-03T16:15:42.558Z,98232.60
2022-12-03T16:18:45.393Z,98235.36
2022-12-03T16:21:48.258Z,98229.45
2022-12-03T16:24:51.121Z,98235.05
2022-12-03T16:27:54.008Z,98229.81
2022-12-03T16:30:56.900Z,98230.14
2022-12-03T16:33:59.738Z,98227.25
2022-12-03T16:37:02.584Z,98229.77
2022-12-03T16:40:06.404Z,98221.67
2022-12-03T16:43:10.780Z,98221.72
2022-12-03T16:46:19.568Z,98221.30
2022-12-03T16:49:22.424Z,98220.16
2022-12-03T16:52:25.353Z,98220.36
2022-12-03T16:55:28.273Z,98217.86
2022-12-03T16:58:31.136Z,98220.61
2022-12-03T17:01:34.055Z,98226.42
2022-12-03T17:04:37.036Z,98227.43
2022-12-03T17:07:39.880Z,98234.98
2022-12-03T17:10:43.740Z,98232.56
2022-12-03T17:13:46.792Z,98228.11
2022-12-03T17:16:50.506Z,98220.08
2022-12-03T17:19:53.824Z,98216.40
2022-12-03T17:22:57.887Z,98219.85
2022-12-03T17:26:00.610Z,98222.02
2022-12-03T17:29:03.482Z,98216.16
2022-12-03T17:32:06.381Z,98205.37
2022-12-03T17:35:10.651Z,98213.27
2022-12-03T17:38:13.454Z,98208.96
2022-12-03T17:41:16.310Z,98215.44
2022-12-03T17:44:21.131Z,98205.90
2022-12-03T17:47:24.548Z,98209.30
2022-12-03T17:50:27.380Z,98204.76
2022-12-03T17:53:30.253Z,98203.57
2022-12-03T17:56:33.195Z,98203.85
2022-12-03T17:59:36.091Z,98203.91
2022-12-03T18:02:39.675Z,98203.38
2022-12-03T18:05:42.562Z,98203.77
2022-12-03T18:08:45.374Z,98198.45
2022-12-03T18:11:48.212Z,98199.65
2022-12-03T18:14:51.095Z,98198.25
2022-12-03T18:17:53.907Z,98197.39
2022-12-03T18:21:01.477Z,98194.63
2022-12-03T18:24:04.789Z,98196.56
2022-12-03T18:27:07.898Z,98200.39
2022-12-03T18:30:11.160Z,98201.20
2022-12-03T18:33:15.691Z,98200.30
2022-12-03T18:36:24.499Z,98195.05
2022-12-03T18:39:34.384Z,98197.70
2022-12-03T18:42:37.176Z,98196.68
2022-12-03T18:45:40.717Z,98197.44
2022-12-03T18:48:45.188Z,98198.48
2022-12-03T18:51:48.598Z,98202.48
2022-12-03T18:54:51.762Z,98198.27
2022-12-03T18:57:54.605Z,98201.20
2022-12-03T19:00:57.380Z,98200.90
2022-12-03T19:04:00.241Z,98195.77
2022-12-03T19:07:03.805Z,98198.18
2022-12-03T19:10:07.617Z,98201.98
2022-12-03T19:13:10.855Z,98203.95
2022-12-03T19:16:15.270Z,98199.77
2022-12-03T19:19:18.848Z,98197.86
2022-12-03T19:22:21.707Z,98204.02
2022-12-03T19:25:24.545Z,98202.22
2022-12-03T19:28:28.684Z,98195.48
2022-12-03T19:31:33.573Z,98199.40
2022-12-03T19:34:36.695Z,98202.18
2022-12-03T19:37:39.577Z,98191.11
2022-12-03T19:40:42.326Z,98198.05
2022-12-03T19:43:53.444Z,98196.44
2022-12-03T19:46:57.364Z,98205.90
2022-12-03T19:50:00.227Z,98203.54
2022-12-03T19:53:03.045Z,98204.14
2022-12-03T19:56:09.304Z,98205.46
2022-12-03T19:59:13.505Z,98203.80
2022-12-03T20:02:17.941Z,98201.05
2022-12-03T20:05:20.916Z,98203.27
2022-12-03T20:08:24.285Z,98200.77
2022-12-03T20:11:30.251Z,98200.84
2022-12-03T20:14:32.994Z,98200.14
2022-12-03T20:17:35.868Z,98208.31
2022-12-03T20:20:38.678Z,98212.77
2022-12-03T20:23:41.582Z,98208.10
2022-12-03T20:26:44.883Z,98211.27
2022-12-03T20:29:47.841Z,98213.40
2022-12-03T20:32:50.603Z,98212.38
2022-12-03T20:35:54.880Z,98203.71
2022-12-03T20:39:00.681Z,98205.55
2022-12-03T20:42:03.651Z,98208.52
2022-12-03T20:45:07.152Z,98200.52
2022-12-03T20:48:10.046Z,98208.11
2022-12-03T20:51:16.039Z,98213.11
2022-12-03T20:54:18.935Z,98216.39
2022-12-03T20:57:21.718Z,98211.77
2022-12-03T21:00:25.031Z,98212.69
2022-12-03T21:03:27.959Z,98205.27
2022-12-03T21:06:31.900Z,98203.25
2022-12-03T21:09:34.733Z,98207.02
2022-12-03T21:12:37.625Z,98195.88
2022-12-03T21:15:41.581Z,98199.89
2022-12-03T21:18:45.884Z,98197.44
2022-12-03T21:21:48.948Z,98192.61
2022-12-03T21:24:51.760Z,98191.02
2022-12-03T21:27:55.204Z,98190.65
2022-12-03T21:31:03.762Z,98186.20
2022-12-03T21:34:08.642Z,98188.95
2022-12-03T21:37:11.512Z,98186.62
2022-12-03T21:40:14.394Z,98193.61
2022-12-03T21:43:17.233Z,98190.52
2022-12-03T21:47:10.664Z,98185.19
2022-12-03T21:49:43.327Z,98178.41
2022-12-03T21:52:46.264Z,98177.40
2022-12-03T21:55:49.041Z,98179.64
2022-12-03T21:58:51.861Z,98189.50
2022-12-03T22:01:54.700Z,98183.33
2022-12-03T22:04:57.613Z,98184.83
2022-12-03T22:08:00.473Z,98183.56
2022-12-03T22:11:09.176Z,98185.08
2022-12-03T22:14:12.393Z,98189.56
2022-12-03T22:17:15.342Z,98200.27
2022-12-03T22:20:18.143Z,98194.24
2022-12-03T22:23:20.891Z,98191.77
2022-12-03T22:26:23.695Z,98190.45
2022-12-03T22:29:26.472Z,98188.32
2022-12-03T22:32:29.265Z,98180.97
2022-12-03T22:35:32.048Z,98186.86
2022-12-03T22:38:35.223Z,98182.08
2022-12-03T22:41:38.045Z,98181.12
2022-12-03T22:44:40.824Z,98182.97
2022-12-03T22:47:43.651Z,98178.33
2022-12-03T22:50:48.891Z,98180.30
2022-12-03T22:53:56.658Z,98184.31
2022-12-03T22:56:59.615Z,98173.70
2022-12-03T23:00:02.546Z,98174.81
2022-12-03T23:03:07.222Z,98175.46
2022-12-03T23:06:11.392Z,98169.96
2022-12-03T23:09:14.189Z,98177.47
2022-12-03T23:12:17.039Z,98172.73
2022-12-03T23:15:19.853Z,98167.34
2022-12-03T23:18:22.751Z,98164.60
2022-12-03T23:21:30.435Z,98170.46
2022-12-03T23:24:33.547Z,98162.23
2022-12-03T23:27:36.326Z,98171.84
2022-12-03T23:30:39.696Z,98164.59
2022-12-03T23:33:42.473Z,98162.39
2022-12-03T23:36:45.519Z,98158.31
2022-12-03T23:39:48.461Z,98157.54
2022-12-03T23:42:51.257Z,98156.83
2022-12-03T23:45:54.077Z,98149.65
2022-12-03T23:48:59.120Z,98148.52
2022-12-03T23:52:01.891Z,98145.15
2022-12-03T23:55:05.879Z,98145.46
2022-12-03T23:58:08.869Z,98145.90
